Time;durP1;ratioP1;P1;durP2;ratioP2;P2;SDS_P1;SDS_P2;PMS_P1;PMS_P2;Temp;Humidity;BMP_temperature;BMP_pressure;BME280_temperature;BME280_humidity;BME280_pressure;Samples;Min_cycle;Max_cycle;Signal;HPM_P1;HPM_P2
2022/07/24 00:01:05;;;;;;;14.25;8.43;;;;;;;25.83;46.92;99155.88;5073020;28;20188;-88
2022/07/24 00:03:30;;;;;;;14.75;8.20;;;;;;;24.05;47.21;98865.88;5075294;28;20162;-89
2022/07/24 00:05:56;;;;;;;13.85;8.48;;;;;;;25.85;47.16;99155.84;5077101;28;20153;-87
2022/07/24 00:08:22;;;;;;;11.97;7.50;;;;;;;24.58;47.00;98945.06;5077884;28;20188;-87
2022/07/24 00:10:47;;;;;;;11.30;7.30;;;;;;;24.48;47.25;98948.72;5078627;28;20176;-88
2022/07/24 00:13:13;;;;;;;10.07;7.15;;;;;;;25.71;47.45;99145.78;5075763;28;20208;-89
2022/07/24 00:15:38;;;;;;;12.07;7.50;;;;;;;24.02;47.18;98857.31;5074939;28;20180;-89
2022/07/24 00:18:04;;;;;;;12.23;7.47;;;;;;;24.97;47.58;99043.63;5073449;28;20162;-89
2022/07/24 00:20:29;;;;;;;12.43;7.28;;;;;;;26.25;47.83;99261.38;5073167;28;20664;-87
2022/07/24 00:22:55;;;;;;;11.60;7.20;;;;;;;23.58;47.86;98845.19;5074090;28;20254;-87
2022/07/24 00:25:20;;;;;;;8.73;6.93;;;;;;;24.67;48.19;99024.28;5074442;28;20157;-88
2022/07/24 00:27:45;;;;;;;12.27;7.20;;;;;;;24.49;47.95;98993.59;5074806;28;20157;-87
2022/07/24 00:30:11;;;;;;;11.50;7.20;;;;;;;24.98;47.72;99097.13;5056908;28;20176;-87
2022/07/24 00:32:37;;;;;;;11.17;7.07;;;;;;;25.96;48.80;99266.28;5076111;28;20204;-88
2022/07/24 00:35:03;;;;;;;11.30;7.13;;;;;;;24.60;48.34;99054.63;5057237;28;20173;-86
2022/07/24 00:37:28;;;;;;;14.60;7.53;;;;;;;24.01;48.38;98946.97;5056757;28;20165;-86
2022/07/24 00:39:54;;;;;;;13.00;7.50;;;;;;;24.60;48.93;99061.53;5074881;28;20181;-85
2022/07/24 00:42:19;;;;;;;9.60;7.00;;;;;;;24.57;48.94;99049.50;5074117;28;20285;-88
2022/07/24 00:44:44;;;;;;;9.30;6.63;;;;;;;25.18;48.81;99183.09;5075211;28;20157;-85
2022/07/24 00:47:10;;;;;;;13.50;7.27;;;;;;;22.98;49.46;98831.53;5056626;28;20641;-88
2022/07/24 00:49:35;;;;;;;11.07;7.43;;;;;;;24.98;49.03;99174.81;5056321;28;20587;-87
2022/07/24 00:52:01;;;;;;;11.07;7.60;;;;;;;25.30;49.36;99234.69;5072844;28;20703;-87
2022/07/24 00:54:26;;;;;;;11.30;7.47;;;;;;;23.01;49.27;98831.47;5056762;28;20193;-87
2022/07/24 00:56:53;;;;;;;13.37;8.07;;;;;;;24.89;49.81;99152.53;5059348;28;20164;-85
2022/07/24 00:59:19;;;;;;;13.40;9.33;;;;;;;25.49;49.73;99271.56;5074560;28;20164;-86
2022/07/24 01:01:46;;;;;;;11.67;9.40;;;;;;;23.54;49.87;98928.81;5073757;28;20501;-87
2022/07/24 01:04:12;;;;;;;14.67;10.03;;;;;;;24.03;49.38;99020.22;5074216;28;20580;-86
2022/07/24 01:06:43;;;;;;;16.27;10.10;;;;;;;25.00;49.78;99188.59;5073178;28;20195;-88
2022/07/24 01:09:09;;;;;;;18.57;10.80;;;;;;;24.26;49.82;99056.09;5055774;28;20303;-87
2022/07/24 01:11:36;;;;;;;16.20;10.37;;;;;;;23.18;49.69;98896.66;5056016;28;20184;-89
2022/07/24 01:14:01;;;;;;;15.67;10.40;;;;;;;23.93;50.13;99013.50;5073052;28;20690;-85
2022/07/24 01:16:27;;;;;;;12.07;9.70;;;;;;;23.37;50.32;98934.28;5073761;28;20161;-90
2022/07/24 01:18:52;;;;;;;16.37;10.10;;;;;;;23.26;50.21;98899.09;5073855;28;20157;-87
2022/07/24 01:21:18;;;;;;;12.63;9.70;;;;;;;23.71;50.65;98981.09;5055483;28;20193;-87
2022/07/24 01:23:43;;;;;;;14.73;9.53;;;;;;;23.72;50.49;98998.34;5055138;28;20221;-86
2022/07/24 01:26:09;;;;;;;13.33;9.40;;;;;;;23.85;50.93;99019.66;5056066;28;20261;-88
2022/07/24 01:28:35;;;;;;;13.93;9.00;;;;;;;24.85;50.66;99188.88;5055324;28;20704;-88
2022/07/24 01:31:01;;;;;;;13.77;8.90;;;;;;;23.75;50.88;99018.97;5055497;28;20168;-88
2022/07/24 01:33:26;;;;;;;17.00;8.83;;;;;;;25.05;50.85;99244.63;5073354;28;20227;-90
2022/07/24 01:35:52;;;;;;;13.03;8.93;;;;;;;23.86;51.24;99036.91;5073856;28;20188;-87
2022/07/24 01:38:18;;;;;;;13.67;8.33;;;;;;;22.31;51.58;98814.34;5074912;28;20297;-87
2022/07/24 01:40:44;;;;;;;13.37;8.70;;;;;;;25.03;51.66;99256.75;5075437;28;20164;-88
2022/07/24 01:43:09;;;;;;;11.57;8.37;;;;;;;21.81;51.48;98712.72;5081018;28;20184;-87
2022/07/24 01:45:35;;;;;;;11.90;8.03;;;;;;;25.11;51.38;99248.84;5096310;28;20194;-88
2022/07/24 01:48:01;;;;;;;12.00;8.40;;;;;;;25.12;51.59;99248.84;5078903;28;20185;-87
2022/07/24 01:50:26;;;;;;;10.37;8.30;;;;;;;23.09;51.57;98907.09;5082098;28;20223;-87
2022/07/24 01:52:55;;;;;;;11.50;7.93;;;;;;;24.26;52.09;99130.28;5082691;28;20188;-87
2022/07/24 01:55:21;;;;;;;10.00;7.70;;;;;;;22.52;52.21;98877.75;5078604;28;20689;-88
2022/07/24 01:57:47;;;;;;;9.87;7.80;;;;;;;24.66;52.56;99224.56;5073660;28;20222;-88
2022/07/24 02:00:13;;;;;;;12.73;7.30;;;;;;;24.43;52.69;99191.25;5055216;28;20251;-89
2022/07/24 02:02:40;;;;;;;11.23;7.00;;;;;;;22.68;52.89;98901.66;5055118;28;20183;-88
2022/07/24 02:05:06;;;;;;;9.83;7.27;;;;;;;24.16;52.89;99136.47;5072982;28;20165;-89
2022/07/24 02:07:32;;;;;;;11.13;6.97;;;;;;;23.28;52.55;98982.59;5055326;28;20169;-87
2022/07/24 02:09:57;;;;;;;12.73;7.30;;;;;;;24.14;53.13;99131.34;5072592;28;20196;-88
2022/07/24 02:12:22;;;;;;;11.27;6.87;;;;;;;23.50;53.45;99035.72;5072755;28;20165;-86
2022/07/24 02:14:48;;;;;;;12.83;7.83;;;;;;;21.73;53.09;98731.69;5054547;28;20635;-88
2022/07/24 02:17:13;;;;;;;10.27;6.97;;;;;;;23.01;53.13;98939.06;5054882;28;20172;-88
2022/07/24 02:19:39;;;;;;;8.77;6.53;;;;;;;23.19;53.40;98968.06;5060129;28;20255;-89
2022/07/24 02:22:04;;;;;;;10.10;6.50;;;;;;;22.97;53.57;98950.28;5054393;28;20185;-87
2022/07/24 02:24:29;;;;;;;7.77;6.60;;;;;;;24.17;53.87;99152.00;5072580;28;20216;-87
2022/07/24 02:26:55;;;;;;;12.97;6.80;;;;;;;23.80;53.44;99119.72;5072610;28;20613;-88
2022/07/24 02:29:20;;;;;;;10.77;7.30;;;;;;;23.43;53.88;99047.03;5070936;28;20192;-86
2022/07/24 02:31:46;;;;;;;10.37;6.60;;;;;;;24.70;53.69;99252.09;5054643;28;20160;-87
2022/07/24 02:34:11;;;;;;;13.00;6.60;;;;;;;21.98;54.01;98796.72;5072573;28;20160;-88
2022/07/24 02:36:37;;;;;;;10.13;6.60;;;;;;;24.72;53.84;99245.19;5072609;28;20648;-86
2022/07/24 02:39:03;;;;;;;11.10;6.80;;;;;;;23.48;54.26;99037.47;5072688;28;20636;-88
2022/07/24 02:41:29;;;;;;;8.60;6.53;;;;;;;22.84;54.01;98958.22;5072358;28;20633;-88
2022/07/24 02:43:54;;;;;;;10.33;6.70;;;;;;;23.82;54.04;99098.13;5054708;28;20171;-87
2022/07/24 02:46:20;;;;;;;9.57;6.60;;;;;;;22.62;54.40;98892.22;5054545;28;20165;-87
2022/07/24 02:48:45;;;;;;;12.27;7.30;;;;;;;22.48;55.40;98886.38;5071934;28;20191;-87
2022/07/24 02:51:10;;;;;;;13.30;8.83;;;;;;;23.59;55.18;99095.03;5072432;28;20165;-87
2022/07/24 02:53:36;;;;;;;12.93;9.20;;;;;;;22.14;56.24;98905.69;5072898;28;20648;-86
2022/07/24 02:56:02;;;;;;;16.27;10.17;;;;;;;23.07;58.10;99074.13;5072934;28;20161;-86
2022/07/24 02:58:27;;;;;;;15.60;10.53;;;;;;;21.13;58.53;98789.81;5054694;28;20168;-87
2022/07/24 03:00:53;;;;;;;16.97;10.80;;;;;;;23.69;59.12;99243.09;5072160;28;20168;-86
2022/07/24 03:03:18;;;;;;;18.43;10.77;;;;;;;22.38;60.07;99036.97;5072995;28;20218;-87
2022/07/24 03:05:43;;;;;;;17.30;11.60;;;;;;;21.29;61.13;98872.91;5073853;28;20527;-87
2022/07/24 03:08:09;;;;;;;20.43;11.60;;;;;;;22.49;62.84;99124.59;5072365;28;20192;-87
2022/07/24 03:10:34;;;;;;;19.73;11.63;;;;;;;19.99;62.60;98684.25;5053968;28;20160;-86
2022/07/24 03:13:00;;;;;;;16.67;11.40;;;;;;;20.32;63.84;98768.06;5071738;28;20621;-88
2022/07/24 03:15:25;;;;;;;15.37;11.30;;;;;;;19.73;64.18;98696.34;5072032;28;20161;-88
2022/07/24 03:17:54;;;;;;;18.47;11.13;;;;;;;23.10;64.75;99233.38;5071911;28;20168;-88
2022/07/24 03:20:21;;;;;;;21.13;11.47;;;;;;;22.23;64.70;99099.00;5054306;28;20245;-86
2022/07/24 03:22:47;;;;;;;18.77;11.30;;;;;;;22.77;67.52;99235.34;5072491;28;20546;-86
2022/07/24 03:25:12;;;;;;;17.20;11.03;;;;;;;22.08;68.29;99140.38;5066980;28;20221;-88
2022/07/24 03:27:38;;;;;;;18.80;11.63;;;;;;;22.20;68.42;99137.69;5052046;28;20618;-88
2022/07/24 03:30:05;;;;;;;17.47;11.83;;;;;;;22.03;67.60;99080.25;5053750;28;20266;-85
2022/07/24 03:32:31;;;;;;;18.37;11.70;;;;;;;22.98;67.06;99246.38;5071690;28;20204;-88
2022/07/24 03:34:56;;;;;;;17.53;11.90;;;;;;;22.81;68.18;99239.63;5053963;28;20257;-88
2022/07/24 03:37:22;;;;;;;16.97;10.73;;;;;;;19.49;68.20;98709.28;5072688;28;20656;-89
2022/07/24 03:39:47;;;;;;;15.03;10.47;;;;;;;21.50;68.58;99026.47;5075864;28;20182;-88
2022/07/24 03:42:13;;;;;;;17.13;10.77;;;;;;;21.57;67.69;99030.69;5075696;28;20168;-89
2022/07/24 03:44:38;;;;;;;19.23;11.17;;;;;;;20.86;68.97;98935.81;5076052;28;20171;-89
2022/07/24 03:47:04;;;;;;;19.70;11.33;;;;;;;22.02;69.13;99128.38;5075892;28;20177;-87
2022/07/24 03:49:29;;;;;;;17.73;11.57;;;;;;;21.64;71.94;99138.88;5058033;28;20250;-89
2022/07/24 03:51:55;;;;;;;22.90;11.80;;;;;;;21.54;72.04;99126.03;5058442;28;20179;-87
2022/07/24 03:54:21;;;;;;;20.40;11.53;;;;;;;21.02;71.78;98994.06;5075884;28;20243;-87
2022/07/24 03:56:47;;;;;;;17.10;11.50;;;;;;;22.66;71.44;99246.63;5058357;28;20177;-90
2022/07/24 03:59:13;;;;;;;18.80;12.10;;;;;;;21.04;69.99;98966.63;5076680;28;20167;-88
2022/07/24 04:01:38;;;;;;;18.60;11.97;;;;;;;22.75;70.31;99257.72;5077053;28;20161;-88
2022/07/24 04:04:06;;;;;;;22.30;12.03;;;;;;;21.76;72.51;99128.50;5076931;28;20176;-87
2022/07/24 04:06:33;;;;;;;20.50;12.17;;;;;;;20.42;74.56;98916.28;5060103;28;20173;-85
2022/07/24 04:08:59;;;;;;;19.83;12.33;;;;;;;22.49;74.25;99249.31;5060602;28;20199;-86
2022/07/24 04:11:26;;;;;;;19.83;12.37;;;;;;;19.85;74.42;98814.47;5099068;28;20157;-85
2022/07/24 04:13:52;;;;;;;20.87;13.20;;;;;;;21.13;73.89;99041.22;5080303;28;20156;-88
2022/07/24 04:16:17;;;;;;;21.37;13.23;;;;;;;20.26;72.65;98872.63;5067761;28;20177;-88
2022/07/24 04:18:43;;;;;;;21.90;13.13;;;;;;;22.66;71.57;99247.47;5081457;28;20163;-88
2022/07/24 04:21:08;;;;;;;20.60;12.87;;;;;;;21.24;70.43;99003.41;5080724;28;20169;-88
2022/07/24 04:23:34;;;;;;;23.73;13.43;;;;;;;22.20;73.03;99241.72;5061128;28;20217;-87
2022/07/24 04:25:59;;;;;;;22.00;13.60;;;;;;;20.32;73.83;98911.16;5061333;28;20207;-87
2022/07/24 04:28:25;;;;;;;20.33;13.23;;;;;;;20.71;71.79;98936.72;5080445;28;20188;-85
2022/07/24 04:30:51;;;;;;;20.00;12.77;;;;;;;22.40;71.55;99171.09;5080793;28;20172;-88
2022/07/24 04:33:16;;;;;;;20.07;12.97;;;;;;;21.45;70.00;98980.09;5083700;28;20232;-89
2022/07/24 04:35:42;;;;;;;16.93;12.13;;;;;;;21.09;69.46;98908.25;5067337;28;20656;-89
2022/07/24 04:38:07;;;;;;;21.53;12.53;;;;;;;21.63;69.73;99020.34;5130276;23;20227;-91
2022/07/24 04:40:33;;;;;;;18.03;12.87;;;;;;;21.44;70.37;98998.16;5028607;28;20171;-87
2022/07/24 04:42:58;;;;;;;21.53;13.00;;;;;;;23.14;68.84;99250.53;5029775;28;20595;-88
2022/07/24 04:45:24;;;;;;;20.87;13.03;;;;;;;22.13;67.63;99074.16;5002122;28;20186;-88
2022/07/24 04:47:49;;;;;;;21.17;13.43;;;;;;;22.90;66.82;99193.09;5017652;28;20171;-88
2022/07/24 04:50:15;;;;;;;19.43;13.10;;;;;;;20.79;67.04;98820.94;5028210;28;20508;-90
2022/07/24 04:52:41;;;;;;;22.20;13.93;;;;;;;21.18;66.80;98872.13;5033319;28;20183;-89
2022/07/24 04:55:07;;;;;;;22.70;13.37;;;;;;;20.42;67.37;98758.56;5009272;28;20183;-89
2022/07/24 04:57:33;;;;;;;26.33;13.77;;;;;;;21.62;66.87;98921.59;5017705;28;20199;-88
2022/07/24 04:59:58;;;;;;;22.10;13.30;;;;;;;21.65;65.02;98923.28;5017598;28;20170;-86
2022/07/24 05:02:24;;;;;;;20.63;12.87;;;;;;;21.85;64.46;98912.81;5017963;28;20167;-88
2022/07/24 05:04:49;;;;;;;17.77;13.30;;;;;;;21.99;62.95;98898.09;5000161;28;20697;-88
2022/07/24 05:07:14;;;;;;;18.07;13.27;;;;;;;22.85;65.00;99114.78;5016548;28;20675;-87
2022/07/24 05:09:40;;;;;;;19.80;13.07;;;;;;;21.87;64.75;98923.97;5016300;28;20187;-88
2022/07/24 05:12:05;;;;;;;23.67;13.40;;;;;;;22.16;64.33;98963.25;5017567;28;20179;-87
2022/07/24 05:14:31;;;;;;;21.17;13.37;;;;;;;21.90;64.06;98934.28;5017246;28;20163;-87
2022/07/24 05:16:56;;;;;;;23.13;13.97;;;;;;;23.63;63.92;99166.47;4997951;28;20178;-86
2022/07/24 05:19:22;;;;;;;21.07;13.87;;;;;;;23.63;62.92;99153.56;5018002;28;20175;-90
2022/07/24 05:21:47;;;;;;;21.10;13.47;;;;;;;22.00;62.03;98876.63;5017893;28;20159;-87
2022/07/24 05:24:13;;;;;;;22.60;13.80;;;;;;;23.22;61.04;99017.09;5018229;28;20174;-86
2022/07/24 05:26:38;;;;;;;21.73;13.33;;;;;;;21.96;61.06;98819.09;5005854;28;20287;-89
2022/07/24 05:29:06;;;;;;;20.47;12.90;;;;;;;23.59;60.57;99043.34;4999621;28;20248;-86
2022/07/24 05:31:32;;;;;;;21.47;13.90;;;;;;;21.89;61.10;98788.25;4998731;28;20645;-88
2022/07/24 05:33:58;;;;;;;20.97;13.10;;;;;;;24.11;58.16;99143.44;4998810;28;20170;-88
2022/07/24 05:36:24;;;;;;;21.50;13.57;;;;;;;22.86;59.19;98912.56;4999758;28;20179;-87
2022/07/24 05:38:49;;;;;;;19.87;13.20;;;;;;;23.69;58.76;99005.28;4998821;28;20324;-87
2022/07/24 05:41:15;;;;;;;17.10;12.20;;;;;;;23.02;58.38;98860.75;5003563;28;20209;-87
2022/07/24 05:43:40;;;;;;;21.60;13.03;;;;;;;23.81;56.88;98941.31;5006617;28;20693;-87
2022/07/24 05:46:06;;;;;;;19.27;12.73;;;;;;;23.45;56.53;98972.91;5023853;28;20690;-88
2022/07/24 05:48:32;;;;;;;23.43;12.33;;;;;;;23.65;56.26;99011.38;4996717;28;20198;-86
2022/07/24 05:50:57;;;;;;;18.80;12.37;;;;;;;25.00;53.58;99214.50;4996955;28;20167;-87
2022/07/24 05:53:23;;;;;;;15.80;11.57;;;;;;;23.79;53.06;98999.94;4998576;28;20171;-88
2022/07/24 05:55:49;;;;;;;20.10;12.60;;;;;;;24.60;53.15;99132.31;5031807;28;20186;-88
2022/07/24 05:58:15;;;;;;;18.30;11.60;;;;;;;23.33;52.87;98900.69;5038390;28;20166;-87
2022/07/24 06:00:40;;;;;;;17.83;11.87;;;;;;;25.41;50.97;99134.25;5037752;28;20157;-89
2022/07/24 06:03:06;;;;;;;18.40;11.43;;;;;;;24.21;48.25;98931.13;5028716;28;20213;-89
2022/07/24 06:05:31;;;;;;;18.73;11.57;;;;;;;24.80;49.94;98957.63;5014588;28;20170;-88
2022/07/24 06:07:57;;;;;;;16.67;11.77;;;;;;;26.02;48.71;99112.22;4996497;28;20174;-88
2022/07/24 06:10:22;;;;;;;17.00;11.37;;;;;;;25.71;47.19;99009.16;5013360;28;20220;-89
2022/07/24 06:12:47;;;;;;;19.30;11.48;;;;;;;25.31;45.64;98916.78;5015162;28;20204;-87
2022/07/24 06:15:13;;;;;;;18.63;11.18;;;;;;;25.26;44.96;98859.03;5014273;28;20642;-89
2022/07/24 06:17:39;;;;;;;17.05;11.63;;;;;;;25.70;44.63;98931.41;5013205;28;20163;-87
2022/07/24 06:20:06;;;;;;;16.50;11.23;;;;;;;25.75;45.70;98942.53;4995885;28;20244;-88
2022/07/24 06:22:31;;;;;;;17.48;11.32;;;;;;;25.28;45.71;98846.88;5014378;28;20214;-88
2022/07/24 06:24:57;;;;;;;17.50;11.35;;;;;;;27.00;45.11;99116.72;4997298;28;20170;-88
2022/07/24 06:27:22;;;;;;;15.50;11.40;;;;;;;26.86;46.13;99128.31;5013483;28;20232;-90
2022/07/24 06:29:48;;;;;;;18.02;11.90;;;;;;;26.86;45.83;99109.31;5013883;28;20218;-89
2022/07/24 06:32:13;;;;;;;16.20;11.02;;;;;;;27.18;45.20;99111.88;5017448;28;20674;-88
2022/07/24 06:34:39;;;;;;;20.15;12.02;;;;;;;27.98;44.81;99205.81;5028343;28;20155;-88
2022/07/24 06:37:04;;;;;;;19.90;11.50;;;;;;;24.92;44.58;98641.41;5037974;28;20158;-87
2022/07/24 06:39:30;;;;;;;17.23;12.15;;;;;;;28.02;44.46;99197.03;5037198;28;20225;-89
2022/07/24 06:41:55;;;;;;;20.92;11.80;;;;;;;27.08;44.27;99016.88;5018117;28;20177;-88
2022/07/24 06:44:22;;;;;;;16.65;11.50;;;;;;;27.68;43.40;99078.38;5017712;28;20178;-87
2022/07/24 06:46:48;;;;;;;18.23;11.50;;;;;;;27.28;44.08;98983.31;5015970;28;20167;-88
2022/07/24 06:49:13;;;;;;;17.85;11.63;;;;;;;27.06;43.84;98938.06;4997865;28;20260;-87
2022/07/24 06:51:38;;;;;;;16.70;11.80;;;;;;;27.33;42.73;98903.44;4997811;28;20175;-85
2022/07/24 06:54:04;;;;;;;15.85;12.15;;;;;;;26.74;43.73;98826.47;4998668;28;20199;-88
2022/07/24 06:56:29;;;;;;;16.50;12.13;;;;;;;26.63;43.64;98815.53;5020013;28;20571;-87
2022/07/24 06:58:55;;;;;;;17.95;12.13;;;;;;;27.34;43.38;98896.50;5017797;28;20164;-88
2022/07/24 07:01:20;;;;;;;19.90;12.10;;;;;;;26.52;43.08;98732.78;5015696;28;20166;-87
2022/07/24 07:03:46;;;;;;;15.48;11.75;;;;;;;27.81;43.42;98952.19;4998131;28;20205;-87
2022/07/24 07:06:11;;;;;;;17.40;11.90;;;;;;;28.79;43.87;99185.94;5016212;28;20557;-87
2022/07/24 07:08:36;;;;;;;18.40;12.20;;;;;;;28.31;43.90;99086.78;5015745;28;20323;-86
2022/07/24 07:11:02;;;;;;;16.30;11.48;;;;;;;28.39;44.03;99074.34;5016215;28;20182;-89
2022/07/24 07:13:27;;;;;;;21.10;12.88;;;;;;;28.85;44.34;99119.72;5019204;28;20257;-87
2022/07/24 07:15:53;;;;;;;19.45;12.60;;;;;;;27.18;44.32;98793.91;5020399;28;20161;-86
2022/07/24 07:18:18;;;;;;;15.18;11.82;;;;;;;29.05;43.50;99052.09;5002067;28;20200;-86
2022/07/24 07:20:44;;;;;;;21.67;12.93;;;;;;;29.38;43.25;99095.22;5019601;28;20168;-86
2022/07/24 07:23:09;;;;;;;23.98;12.30;;;;;;;28.41;42.78;98891.97;5019690;28;20662;-87
2022/07/24 07:25:34;;;;;;;23.15;15.63;;;;;;;27.63;42.82;98718.72;5002676;28;20238;-87
2022/07/24 07:28:00;;;;;;;18.95;11.95;;;;;;;29.70;41.94;99037.41;5019653;28;20169;-87
2022/07/24 07:30:25;;;;;;;18.85;12.50;;;;;;;29.85;41.49;99003.81;5022096;28;20685;-88
2022/07/24 07:32:51;;;;;;;16.25;12.68;;;;;;;30.52;41.43;99101.19;5019940;28;20204;-88
2022/07/24 07:35:16;;;;;;;20.45;11.25;;;;;;;30.58;40.41;99159.25;5018885;28;20220;-88
2022/07/24 07:37:45;;;;;;;17.52;12.05;;;;;;;28.58;41.48;98820.13;5003359;28;20715;-87
2022/07/24 07:40:10;;;;;;;15.65;11.82;;;;;;;29.59;41.99;98888.25;5022962;28;20189;-87
2022/07/24 07:42:36;;;;;;;17.27;11.57;;;;;;;31.14;41.69;99149.06;5023581;28;20165;-88
2022/07/24 07:45:01;;;;;;;20.30;11.00;;;;;;;30.03;40.62;98974.34;5022763;28;20189;-89
2022/07/24 07:47:27;;;;;;;16.08;10.70;;;;;;;30.38;40.54;99037.28;5001887;28;20215;-88
2022/07/24 07:49:52;;;;;;;16.98;10.88;;;;;;;29.20;41.25;98859.41;5002445;28;20193;-88
2022/07/24 07:52:18;;;;;;;19.92;10.40;;;;;;;29.13;40.09;98804.97;5019983;28;20165;-88
2022/07/24 07:54:45;;;;;;;18.73;11.20;;;;;;;30.00;41.25;98950.97;5002625;28;20169;-89
2022/07/24 07:57:10;;;;;;;21.05;11.05;;;;;;;30.70;40.48;98996.69;5013786;28;20204;-89
2022/07/24 07:59:37;;;;;;;18.48;11.52;;;;;;;31.82;39.90;99138.13;5030342;28;20536;-88
2022/07/24 08:02:02;;;;;;;16.02;11.13;;;;;;;28.89;40.17;98680.84;5009232;28;20187;-86
2022/07/24 08:04:28;;;;;;;20.33;11.75;;;;;;;30.48;39.62;98875.75;5003942;28;20200;-88
2022/07/24 08:06:53;;;;;;;23.13;11.73;;;;;;;31.91;39.63;99081.84;5006749;28;20166;-88
2022/07/24 08:09:20;;;;;;;18.27;11.52;;;;;;;29.42;39.26;98697.66;5004822;28;20654;-87
2022/07/24 08:11:46;;;;;;;19.40;11.27;;;;;;;29.96;39.67;98884.13;5021166;28;20165;-89
2022/07/24 08:14:12;;;;;;;16.85;11.40;;;;;;;29.96;39.78;98840.59;5003159;28;20157;-87
2022/07/24 08:16:37;;;;;;;22.17;11.43;;;;;;;30.88;39.57;98882.59;5005659;28;20176;-88
2022/07/24 08:19:03;;;;;;;19.42;11.10;;;;;;;30.10;38.36;98728.56;5026559;28;20221;-89
2022/07/24 08:21:28;;;;;;;21.23;10.90;;;;;;;31.20;39.31;98996.22;5009920;28;20174;-88
2022/07/24 08:23:54;;;;;;;17.92;11.32;;;;;;;30.65;39.94;98950.78;5026931;28;20189;-86
2022/07/24 08:26:19;;;;;;;15.48;10.55;;;;;;;30.98;38.89;98937.97;5005047;28;20165;-89
2022/07/24 08:28:45;;;;;;;17.70;11.25;;;;;;;30.54;38.64;98859.78;5023192;28;20192;-89
2022/07/24 08:31:10;;;;;;;16.80;10.07;;;;;;;32.38;37.97;99124.97;5022152;28;20177;-88
2022/07/24 08:33:35;;;;;;;14.85;9.48;;;;;;;30.59;36.85;98813.38;5020291;28;20163;-88
2022/07/24 08:36:01;;;;;;;16.65;9.85;;;;;;;32.42;36.27;99097.66;5018094;28;20177;-89
2022/07/24 08:38:27;;;;;;;14.10;10.20;;;;;;;33.30;35.42;99129.88;5000479;28;20232;-87
2022/07/24 08:40:53;;;;;;;13.98;9.43;;;;;;;30.30;34.44;98610.06;5019663;28;20198;-88
2022/07/24 08:43:18;;;;;;;13.93;9.82;;;;;;;32.89;35.01;99121.50;5001518;28;20193;-88
2022/07/24 08:45:44;;;;;;;14.15;10.35;;;;;;;31.58;35.74;98867.03;5014956;28;20324;-87
2022/07/24 08:48:10;;;;;;;14.68;10.30;;;;;;;32.94;35.96;99116.84;5017545;28;20162;-88
2022/07/24 08:50:39;;;;;;;16.25;10.45;;;;;;;30.67;35.16;98659.66;5000613;28;20627;-87
2022/07/24 08:53:05;;;;;;;12.73;10.07;;;;;;;33.09;34.71;99110.00;4998983;28;20170;-87
2022/07/24 08:55:31;;;;;;;15.02;10.43;;;;;;;33.02;36.37;99119.13;5020622;28;20683;-87
2022/07/24 08:57:58;;;;;;;15.45;9.88;;;;;;;33.39;34.62;99116.25;5014448;28;20546;-88
2022/07/24 09:00:25;;;;;;;16.23;9.93;;;;;;;32.28;34.67;98935.00;5018355;28;20630;-87
2022/07/24 09:02:50;;;;;;;15.32;10.15;;;;;;;32.59;34.75;98874.00;5036593;28;20239;-86
2022/07/24 09:05:16;;;;;;;17.95;10.20;;;;;;;32.89;34.39;98879.34;5035824;28;20170;-89
2022/07/24 09:07:41;;;;;;;16.42;10.35;;;;;;;33.77;34.34;98996.00;5024209;28;20163;-89
2022/07/24 09:10:13;;;;;;;14.43;10.20;;;;;;;34.49;33.52;99090.81;5002641;28;20264;-88
2022/07/24 09:12:42;;;;;;;16.48;10.40;;;;;;;34.17;33.60;99029.56;5000056;28;20777;-89
2022/07/24 09:15:17;;;;;;;15.30;9.25;;;;;;;34.39;33.26;99039.72;5015126;28;20628;-87
2022/07/24 09:18:08;;;;;;;19.65;11.43;;;;;;;34.56;32.46;99046.59;5016230;28;20379;-89
2022/07/24 09:20:37;;;;;;;15.88;10.00;;;;;;;33.91;32.76;98950.53;4973564;28;20682;-89
2022/07/24 09:23:02;;;;;;;13.70;9.55;;;;;;;34.39;32.54;98981.88;4973633;28;20285;-88
2022/07/24 09:25:28;;;;;;;17.23;9.02;;;;;;;35.66;31.53;99088.94;4965171;28;20235;-87
2022/07/24 09:27:57;;;;;;;17.77;9.55;;;;;;;34.94;32.17;99090.72;4970767;28;20173;-88
2022/07/24 09:30:36;;;;;;;13.15;9.15;;;;;;;34.54;33.07;99090.53;4961769;28;20280;-86
2022/07/24 09:33:07;;;;;;;13.88;9.65;;;;;;;34.76;33.31;99085.72;4982691;28;20217;-91
2022/07/24 09:35:37;;;;;;;11.88;9.25;;;;;;;33.84;32.00;98911.50;4956155;29;20192;-88
2022/07/24 09:38:04;;;;;;;13.73;9.60;;;;;;;35.17;31.49;99081.44;4939752;29;20200;-88
2022/07/24 09:40:36;;;;;;;15.38;9.52;;;;;;;35.29;31.64;99079.84;4953728;29;20161;-88
2022/07/24 09:43:18;;;;;;;13.70;9.40;;;;;;;35.43;31.67;99078.06;4953889;29;20168;-90
2022/07/24 09:45:55;;;;;;;16.10;9.82;;;;;;;35.78;31.88;99077.63;4972118;28;20177;-89
2022/07/24 09:48:22;;;;;;;16.10;11.73;;;;;;;35.96;31.22;99081.69;4947787;28;20299;-89
2022/07/24 09:50:52;;;;;;;14.10;9.85;;;;;;;36.00;30.30;99073.50;4958505;28;20188;-90
2022/07/24 09:53:24;;;;;;;15.88;9.70;;;;;;;36.62;30.04;99068.53;4975027;28;20295;-88
2022/07/24 09:55:57;;;;;;;15.52;9.65;;;;;;;36.51;29.77;99047.31;4972973;28;20197;-88
2022/07/24 09:58:23;;;;;;;15.55;10.25;;;;;;;36.68;29.71;99055.75;4993481;28;20283;-88
2022/07/24 10:00:51;;;;;;;16.48;9.20;;;;;;;34.42;29.09;98716.94;4997248;28;20160;-88
2022/07/24 10:03:18;;;;;;;22.55;14.80;;;;;;;35.25;29.23;98868.56;4978441;28;20164;-89
2022/07/24 10:05:45;;;;;;;15.93;9.95;;;;;;;36.43;29.93;99063.63;4996572;28;20170;-87
2022/07/24 10:08:13;;;;;;;12.88;9.60;;;;;;;36.20;30.09;98953.59;5000256;28;20310;-89
2022/07/24 10:10:41;;;;;;;15.23;9.43;;;;;;;34.71;29.67;98737.94;5004222;28;20202;-88
2022/07/24 10:13:08;;;;;;;12.15;9.25;;;;;;;34.74;30.39;98779.81;5021729;28;20174;-89
2022/07/24 10:15:34;;;;;;;16.27;9.82;;;;;;;35.64;31.45;99052.16;5025093;28;20167;-88
2022/07/24 10:18:11;;;;;;;16.05;10.27;;;;;;;35.71;30.67;99047.34;5025666;28;20167;-87
2022/07/24 10:20:41;;;;;;;16.15;9.95;;;;;;;34.55;30.78;98847.66;5005342;28;20176;-89
2022/07/24 10:23:07;;;;;;;11.48;9.57;;;;;;;34.89;30.41;98861.22;5015926;28;20167;-88
2022/07/24 10:25:53;;;;;;;12.05;9.48;;;;;;;35.88;30.88;99010.19;5001328;28;20201;-88
2022/07/24 10:28:32;;;;;;;19.23;9.70;;;;;;;34.80;30.64;98811.00;5000856;28;20194;-88
2022/07/24 10:30:58;;;;;;;15.38;9.73;;;;;;;34.79;30.74;98815.41;4999410;28;20166;-86
2022/07/24 10:33:24;;;;;;;11.93;9.52;;;;;;;34.95;31.21;98879.25;4999631;28;20178;-88
2022/07/24 10:35:50;;;;;;;12.95;9.43;;;;;;;36.31;30.70;99035.44;5018207;28;20246;-88
2022/07/24 10:38:36;;;;;;;13.68;9.70;;;;;;;35.43;30.19;98870.00;5019281;28;20170;-88
2022/07/24 10:41:08;;;;;;;15.18;9.43;;;;;;;36.46;30.25;99029.13;5014476;28;20201;-87
2022/07/24 10:43:34;;;;;;;13.85;9.88;;;;;;;35.21;30.20;98858.34;5020799;28;20658;-88
2022/07/24 10:45:59;;;;;;;14.63;10.18;;;;;;;36.15;31.09;99018.97;5017688;28;20166;-88
2022/07/24 10:48:27;;;;;;;12.00;9.27;;;;;;;36.27;30.51;99014.63;5020610;28;20186;-89
2022/07/24 10:51:08;;;;;;;15.65;9.63;;;;;;;36.44;30.49;99009.06;5003011;28;20186;-87
2022/07/24 10:53:37;;;;;;;14.70;9.43;;;;;;;36.78;29.85;99002.38;5007968;28;20183;-90
2022/07/24 10:56:33;;;;;;;14.35;10.15;;;;;;;36.93;30.28;99009.19;5018596;28;20210;-89
2022/07/24 10:58:59;;;;;;;15.82;9.65;;;;;;;36.79;29.47;98999.59;5005037;28;20179;-87
2022/07/24 11:01:37;;;;;;;15.70;10.13;;;;;;;35.20;30.46;98732.94;5003204;28;20186;-87
2022/07/24 11:04:24;;;;;;;15.15;10.07;;;;;;;37.00;29.51;98989.38;5016487;28;20170;-86
2022/07/24 11:07:08;;;;;;;16.80;11.32;;;;;;;37.04;28.91;98996.13;5017437;28;20182;-89
2022/07/24 11:09:56;;;;;;;17.98;10.13;;;;;;;35.87;28.77;98781.88;5017575;28;20183;-88
2022/07/24 11:12:30;;;;;;;11.52;9.65;;;;;;;35.49;29.42;98714.19;4998777;28;20206;-87
2022/07/24 11:17:50;;;;;;;14.00;9.65;;;;;;;35.70;28.97;98784.84;5014502;28;20194;-88
2022/07/24 11:20:21;;;;;;;12.43;9.88;;;;;;;36.01;29.90;98984.75;5016629;28;20166;-88
2022/07/24 11:22:54;;;;;;;14.38;11.27;;;;;;;35.56;28.98;98763.84;5014192;28;20167;-88